createdAt,value
2023-03-27T00:03:06.832Z,218.00
2023-03-27T00:07:06.992Z,220.00
2023-03-27T00:11:07.215Z,218.00
2023-03-27T00:15:07.158Z,221.00
2023-03-27T00:19:07.129Z,220.00
2023-03-27T00:23:07.096Z,220.00
2023-03-27T00:27:07.082Z,222.00
2023-03-27T00:31:07.000Z,224.00
2023-03-27T00:35:06.976Z,224.00
2023-03-27T00:39:06.951Z,221.00
2023-03-27T00:43:06.921Z,220.00
2023-03-27T00:47:06.850Z,222.00
2023-03-27T00:51:06.904Z,222.00
2023-03-27T00:55:06.795Z,224.00
2023-03-27T00:59:06.773Z,220.00
2023-03-27T01:03:06.812Z,219.00
2023-03-27T01:07:06.691Z,219.00
2023-03-27T01:11:06.705Z,219.00
2023-03-27T01:15:06.622Z,222.00
2023-03-27T01:19:06.580Z,221.00
2023-03-27T01:23:06.570Z,223.00
2023-03-27T01:27:06.573Z,221.00
2023-03-27T01:31:06.577Z,223.00
2023-03-27T01:35:06.530Z,222.00
2023-03-27T01:39:06.505Z,220.00
2023-03-27T01:43:06.461Z,222.00
2023-03-27T01:47:06.412Z,223.00
2023-03-27T01:51:06.402Z,218.00
2023-03-27T01:55:06.383Z,219.00
2023-03-27T01:59:06.315Z,222.00
2023-03-27T02:03:06.274Z,222.00
2023-03-27T02:07:06.256Z,219.00
2023-03-27T02:11:06.200Z,222.00
2023-03-27T02:15:24.600Z,216.00
2023-03-27T02:19:07.270Z,214.00
2023-03-27T02:23:06.192Z,214.00
2023-03-27T02:27:06.402Z,215.00
2023-03-27T02:31:32.425Z,216.00
2023-03-27T02:35:07.546Z,218.00
2023-03-27T02:39:06.517Z,216.00
2023-03-27T02:43:06.667Z,219.00
2023-03-27T02:47:06.849Z,221.00
2023-03-27T02:51:07.090Z,219.00
2023-03-27T02:55:07.276Z,216.00
2023-03-27T02:59:07.440Z,217.00
2023-03-27T03:03:07.889Z,214.00
2023-03-27T03:07:07.874Z,218.00
2023-03-27T03:11:08.033Z,218.00
2023-03-27T03:15:08.296Z,217.00
2023-03-27T03:19:08.511Z,224.00
2023-03-27T03:23:08.692Z,222.00
2023-03-27T03:27:08.849Z,220.00
2023-03-27T03:31:09.114Z,220.00
2023-03-27T03:35:09.040Z,225.00
2023-03-27T03:39:09.016Z,223.00
2023-03-27T03:43:08.936Z,227.00
2023-03-27T03:47:08.961Z,227.00
2023-03-27T03:51:08.887Z,223.00
2023-03-27T03:55:08.864Z,221.00
2023-03-27T03:59:08.835Z,223.00
2023-03-27T04:03:08.965Z,226.00
2023-03-27T04:07:08.740Z,227.00
2023-03-27T04:11:08.715Z,234.00
2023-03-27T04:15:08.734Z,244.00
2023-03-27T04:19:08.661Z,249.00
2023-03-27T04:23:08.795Z,255.00
2023-03-27T04:27:08.869Z,262.00
2023-03-27T04:31:08.904Z,267.00
2023-03-27T04:35:08.879Z,272.00
2023-03-27T04:39:08.908Z,270.00
2023-03-27T04:43:08.976Z,272.00
2023-03-27T04:47:09.306Z,270.00
2023-03-27T04:55:09.228Z,265.00
2023-03-27T04:59:09.248Z,266.00
2023-03-27T05:03:09.362Z,269.00
2023-03-27T05:07:09.298Z,267.00
2023-03-27T05:11:09.266Z,270.00
2023-03-27T05:15:09.299Z,271.00
2023-03-27T05:19:09.334Z,269.00
2023-03-27T05:23:09.330Z,267.00
2023-03-27T05:27:09.278Z,270.00
2023-03-27T05:31:09.965Z,285.00
2023-03-27T05:35:09.470Z,306.00
2023-03-27T05:39:09.358Z,368.00
2023-03-27T05:43:11.345Z,443.00
2023-03-27T05:47:09.463Z,517.00
2023-03-27T05:51:09.807Z,607.00
2023-03-27T05:55:09.781Z,634.00
2023-03-27T05:59:09.712Z,685.00
2023-03-27T06:03:10.043Z,722.00
2023-03-27T06:07:10.125Z,759.00
2023-03-27T06:11:10.072Z,779.00
2023-03-27T06:15:10.163Z,821.00
2023-03-27T06:19:10.307Z,832.00
2023-03-27T06:23:09.959Z,844.00
2023-03-27T06:27:10.901Z,873.00
2023-03-27T06:31:09.992Z,858.00
2023-03-27T06:35:09.858Z,906.00
2023-03-27T06:39:09.929Z,674.00
2023-03-27T06:43:09.879Z,749.00
2023-03-27T06:47:09.804Z,815.00
2023-03-27T06:51:09.706Z,845.00
2023-03-27T06:55:14.651Z,863.00
2023-03-27T06:59:10.832Z,872.00
2023-03-27T07:03:09.926Z,886.00
2023-03-27T07:07:09.734Z,897.00
2023-03-27T07:11:12.195Z,921.00
2023-03-27T07:15:09.696Z,933.00
2023-03-27T07:19:09.691Z,954.00
2023-03-27T07:23:09.617Z,965.00
2023-03-27T07:27:09.567Z,953.00
2023-03-27T07:31:20.119Z,1013.00
2023-03-27T07:35:10.486Z,998.00
2023-03-27T07:39:09.513Z,687.00
2023-03-27T07:43:09.673Z,647.00
2023-03-27T07:47:09.866Z,717.00
2023-03-27T07:51:13.711Z,719.00
2023-03-27T07:55:10.005Z,710.00
2023-03-27T07:59:09.992Z,701.00
2023-03-27T08:03:10.665Z,700.00
2023-03-27T08:07:09.938Z,692.00
2023-03-27T08:11:23.042Z,689.00
2023-03-27T08:15:10.816Z,693.00
2023-03-27T08:19:09.921Z,587.00
2023-03-27T08:23:09.755Z,549.00
2023-03-27T08:27:09.976Z,552.00
2023-03-27T08:31:10.194Z,587.00
2023-03-27T08:35:10.075Z,597.00
2023-03-27T08:39:10.133Z,638.00
2023-03-27T08:43:10.135Z,571.00
2023-03-27T08:47:10.273Z,628.00
2023-03-27T08:51:11.687Z,537.00
2023-03-27T08:55:10.415Z,529.00
2023-03-27T08:59:10.917Z,496.00
2023-03-27T09:03:10.952Z,474.00
2023-03-27T09:07:10.973Z,506.00
2023-03-27T09:11:11.156Z,527.00
2023-03-27T09:15:11.209Z,542.00
2023-03-27T09:19:11.206Z,547.00
2023-03-27T09:23:11.374Z,566.00
2023-03-27T09:27:11.941Z,571.00
2023-03-27T09:31:11.925Z,586.00
2023-03-27T09:35:11.935Z,528.00
2023-03-27T09:39:11.999Z,559.00
2023-03-27T09:43:12.446Z,626.00
2023-03-27T09:47:12.205Z,699.00
2023-03-27T09:51:12.397Z,701.00
2023-03-27T09:55:12.431Z,721.00
2023-03-27T09:59:12.655Z,743.00
2023-03-27T10:03:12.841Z,750.00
2023-03-27T10:07:12.851Z,765.00
2023-03-27T10:11:12.889Z,783.00
2023-03-27T10:15:12.972Z,791.00
2023-03-27T10:19:12.944Z,799.00
2023-03-27T10:23:13.429Z,817.00
2023-03-27T10:27:12.995Z,920.00
2023-03-27T10:31:13.083Z,614.00
2023-03-27T10:35:13.239Z,565.00
2023-03-27T10:39:13.397Z,513.00
2023-03-27T10:43:13.519Z,493.00
2023-03-27T10:47:13.717Z,466.00
2023-03-27T10:51:13.823Z,451.00
2023-03-27T10:55:13.912Z,435.00
2023-03-27T10:59:13.712Z,423.00
2023-03-27T11:03:13.740Z,412.00
2023-03-27T11:07:16.352Z,406.00
2023-03-27T11:11:13.660Z,394.00
2023-03-27T11:15:13.636Z,386.00
2023-03-27T11:19:13.532Z,382.00
2023-03-27T11:23:13.542Z,377.00
2023-03-27T11:27:14.623Z,379.00
2023-03-27T11:31:13.483Z,378.00
2023-03-27T11:35:13.404Z,376.00
2023-03-27T11:39:13.371Z,379.00
2023-03-27T11:43:13.333Z,369.00
2023-03-27T11:47:13.897Z,372.00
2023-03-27T11:51:13.235Z,372.00
2023-03-27T11:55:13.240Z,368.00
2023-03-27T11:59:13.266Z,362.00
2023-03-27T12:03:13.240Z,363.00
2023-03-27T12:07:13.329Z,362.00
2023-03-27T12:11:13.173Z,362.00
2023-03-27T12:15:13.200Z,351.00
2023-03-27T12:19:27.784Z,355.00
2023-03-27T12:23:14.205Z,356.00
2023-03-27T12:27:13.297Z,352.00
2023-03-27T12:31:13.210Z,356.00
2023-03-27T12:35:13.164Z,355.00
2023-03-27T12:39:13.126Z,355.00
2023-03-27T12:43:13.050Z,355.00
2023-03-27T12:47:13.157Z,356.00
2023-03-27T12:51:13.258Z,356.00
2023-03-27T12:55:13.270Z,354.00
2023-03-27T12:59:13.399Z,351.00
2023-03-27T13:03:13.499Z,352.00
2023-03-27T13:07:13.521Z,351.00
2023-03-27T13:11:13.621Z,352.00
2023-03-27T13:15:13.688Z,350.00
2023-03-27T13:19:13.750Z,348.00
2023-03-27T13:23:13.808Z,352.00
2023-03-27T13:27:13.884Z,349.00
2023-03-27T13:31:13.966Z,352.00
2023-03-27T13:35:13.894Z,352.00
2023-03-27T13:39:13.968Z,354.00
2023-03-27T13:43:13.994Z,352.00
2023-03-27T13:47:13.962Z,352.00
2023-03-27T13:51:13.992Z,354.00
2023-03-27T13:55:13.982Z,351.00
2023-03-27T13:59:14.331Z,355.00
2023-03-27T14:03:14.157Z,353.00
2023-03-27T14:07:13.953Z,350.00
2023-03-27T14:11:13.975Z,352.00
2023-03-27T14:15:13.994Z,354.00
2023-03-27T14:19:13.987Z,356.00
2023-03-27T14:23:13.948Z,356.00
2023-03-27T14:27:14.044Z,351.00
2023-03-27T14:31:13.973Z,352.00
2023-03-27T14:35:13.942Z,351.00
2023-03-27T14:39:13.988Z,352.00
2023-03-27T14:43:13.917Z,352.00
2023-03-27T14:47:13.913Z,352.00
2023-03-27T14:51:13.991Z,345.00
2023-03-27T14:55:14.074Z,347.00
2023-03-27T14:59:14.140Z,342.00
2023-03-27T15:03:14.162Z,338.00
2023-03-27T15:07:14.158Z,340.00
2023-03-27T15:11:14.203Z,337.00
2023-03-27T15:15:14.219Z,337.00
2023-03-27T15:19:14.238Z,338.00
2023-03-27T15:23:14.164Z,335.00
2023-03-27T15:27:14.187Z,339.00
2023-03-27T15:31:14.206Z,335.00
2023-03-27T15:35:14.148Z,334.00
2023-03-27T15:39:14.167Z,334.00
2023-03-27T15:43:14.191Z,331.00
2023-03-27T15:47:15.083Z,325.00
2023-03-27T15:51:14.174Z,325.00
2023-03-27T15:55:14.189Z,325.00
2023-03-27T15:59:14.116Z,324.00
2023-03-27T16:03:14.172Z,322.00
2023-03-27T16:07:14.078Z,323.00
2023-03-27T16:11:14.106Z,325.00
2023-03-27T16:15:14.111Z,320.00
2023-03-27T16:19:14.154Z,324.00
2023-03-27T16:23:14.208Z,331.00
2023-03-27T16:27:14.214Z,336.00
2023-03-27T16:31:14.311Z,331.00
2023-03-27T16:35:14.333Z,329.00
2023-03-27T16:39:14.416Z,329.00
2023-03-27T16:43:14.532Z,330.00
2023-03-27T16:47:14.623Z,331.00
2023-03-27T16:51:14.823Z,329.00
2023-03-27T16:55:14.890Z,331.00
2023-03-27T16:59:15.017Z,330.00
2023-03-27T17:03:15.190Z,328.00
2023-03-27T17:07:15.295Z,330.00
2023-03-27T17:11:15.430Z,334.00
2023-03-27T17:15:15.526Z,331.00
2023-03-27T17:19:15.702Z,328.00
2023-03-27T17:23:15.833Z,326.00
2023-03-27T17:27:16.061Z,325.00
2023-03-27T17:31:16.295Z,325.00
2023-03-27T17:35:16.393Z,329.00
2023-03-27T17:39:16.602Z,333.00
2023-03-27T17:43:16.781Z,331.00
2023-03-27T17:47:17.095Z,333.00
2023-03-27T17:51:17.242Z,333.00
2023-03-27T17:55:17.193Z,328.00
2023-03-27T17:59:17.215Z,323.00
2023-03-27T18:03:17.252Z,323.00
2023-03-27T18:07:17.155Z,328.00
2023-03-27T18:11:17.107Z,329.00
2023-03-27T18:15:17.071Z,330.00
2023-03-27T18:19:17.026Z,330.00
2023-03-27T18:23:16.958Z,328.00
2023-03-27T18:27:16.951Z,325.00
2023-03-27T18:31:16.886Z,324.00
2023-03-27T18:35:17.013Z,332.00
2023-03-27T18:39:17.163Z,334.00
2023-03-27T18:43:17.439Z,334.00
2023-03-27T18:47:17.425Z,328.00
2023-03-27T18:51:18.165Z,326.00
2023-03-27T18:55:17.843Z,325.00
2023-03-27T18:59:18.023Z,318.00
2023-03-27T19:03:18.297Z,320.00
2023-03-27T19:07:18.283Z,318.00
2023-03-27T19:11:19.184Z,321.00
2023-03-27T19:15:20.381Z,319.00
2023-03-27T19:19:18.790Z,316.00
2023-03-27T19:23:18.966Z,316.00
2023-03-27T19:27:23.758Z,311.00
2023-03-27T19:31:20.102Z,315.00
2023-03-27T19:35:18.985Z,314.00
2023-03-27T19:39:18.967Z,318.00
2023-03-27T19:43:18.978Z,322.00
2023-03-27T19:47:18.915Z,322.00
2023-03-27T19:51:18.882Z,322.00
2023-03-27T19:55:18.867Z,317.00
2023-03-27T19:59:29.826Z,317.00
2023-03-27T20:03:19.871Z,315.00
2023-03-27T20:07:18.772Z,324.00
2023-03-27T20:11:18.734Z,322.00
2023-03-27T20:15:18.748Z,320.00
2023-03-27T20:19:19.410Z,316.00
2023-03-27T20:23:18.661Z,315.00
2023-03-27T20:27:18.571Z,315.00
2023-03-27T20:31:18.620Z,309.00
2023-03-27T20:35:24.214Z,309.00
2023-03-27T20:39:19.666Z,310.00
2023-03-27T20:43:18.467Z,312.00
2023-03-27T20:47:18.414Z,315.00
2023-03-27T20:51:18.368Z,310.00
2023-03-27T20:55:30.447Z,311.00
2023-03-27T20:59:19.305Z,311.00
2023-03-27T21:03:18.311Z,310.00
2023-03-27T21:07:18.272Z,313.00
2023-03-27T21:11:18.353Z,312.00
2023-03-27T21:15:18.387Z,312.00
2023-03-27T21:19:18.460Z,311.00
2023-03-27T21:23:18.550Z,310.00
2023-03-27T21:27:18.575Z,308.00
2023-03-27T21:31:18.614Z,309.00
2023-03-27T21:35:18.700Z,311.00
2023-03-27T21:39:18.758Z,311.00
2023-03-27T21:43:18.787Z,311.00
2023-03-27T21:47:18.852Z,313.00
2023-03-27T21:51:18.957Z,314.00
2023-03-27T21:55:18.970Z,314.00
2023-03-27T21:59:19.112Z,314.00
2023-03-27T22:03:19.126Z,310.00
2023-03-27T22:07:19.204Z,307.00
2023-03-27T22:11:19.283Z,305.00
2023-03-27T22:15:19.356Z,306.00
2023-03-27T22:19:19.501Z,305.00
2023-03-27T22:23:19.547Z,304.00
2023-03-27T22:27:19.820Z,303.00
2023-03-27T22:31:19.738Z,301.00
2023-03-27T22:35:19.778Z,301.00
2023-03-27T22:39:19.919Z,303.00
2023-03-27T22:43:22.558Z,301.00
2023-03-27T22:47:19.987Z,302.00
2023-03-27T22:51:19.948Z,305.00
2023-03-27T22:55:19.889Z,300.00
2023-03-27T22:59:19.905Z,302.00
2023-03-27T23:03:19.954Z,303.00
2023-03-27T23:07:19.761Z,309.00
2023-03-27T23:11:19.765Z,308.00
2023-03-27T23:15:30.280Z,305.00
2023-03-27T23:19:20.733Z,304.00
2023-03-27T23:23:19.640Z,304.00
2023-03-27T23:27:19.622Z,301.00
2023-03-27T23:31:19.723Z,302.00
2023-03-27T23:35:19.823Z,300.00
2023-03-27T23:39:20.188Z,304.00
2023-03-27T23:43:20.151Z,305.00
2023-03-27T23:47:20.274Z,305.00
2023-03-27T23:51:20.420Z,308.00
2023-03-27T23:55:20.601Z,307.00
2023-03-27T23:59:20.762Z,308.00
